createdAt,value
2019-04-20T00:00:30.543Z,4.62
2019-04-20T00:02:57.149Z,4.75
2019-04-20T00:05:25.169Z,4.22
2019-04-20T00:07:52.315Z,4.47
2019-04-20T00:10:21.576Z,4.40
2019-04-20T00:13:02.309Z,4.40
2019-04-20T00:15:17.625Z,4.12
2019-04-20T00:17:49.643Z,4.35
2019-04-20T00:20:20.759Z,4.37
2019-04-20T00:23:00.183Z,4.70
2019-04-20T00:25:47.482Z,4.25
2019-04-20T00:28:25.430Z,4.50
2019-04-20T00:30:54.465Z,4.10
2019-04-20T00:33:14.837Z,5.28
2019-04-20T00:35:31.882Z,4.40
2019-04-20T00:37:59.138Z,4.12
2019-04-20T00:40:26.717Z,4.40
2019-04-20T00:42:57.113Z,4.83
2019-04-20T00:45:27.490Z,4.37
2019-04-20T00:47:59.298Z,4.30
2019-04-20T00:50:36.696Z,4.37
2019-04-20T00:53:02.161Z,4.30
2019-04-20T00:55:17.156Z,4.30
2019-04-20T00:57:51.392Z,4.22
2019-04-20T01:00:31.327Z,4.45
2019-04-20T01:02:55.337Z,4.70
2019-04-20T01:05:53.837Z,4.50
2019-04-20T01:08:10.071Z,4.30
2019-04-20T01:10:44.813Z,4.33
2019-04-20T01:13:13.751Z,4.62
2019-04-20T01:15:42.909Z,4.30
2019-04-20T01:18:04.948Z,4.83
2019-04-20T01:20:31.787Z,4.20
2019-04-20T01:23:06.346Z,4.83
2019-04-20T01:25:33.833Z,4.60
2019-04-20T01:28:14.766Z,4.55
2019-04-20T01:30:36.219Z,4.42
2019-04-20T01:33:12.667Z,4.50
2019-04-20T01:35:47.913Z,5.03
2019-04-20T01:38:16.908Z,4.10
2019-04-20T01:40:27.486Z,4.40
2019-04-20T01:42:55.316Z,4.50
2019-04-20T01:45:29.270Z,4.70
2019-04-20T01:47:54.454Z,4.53
2019-04-20T01:50:24.754Z,4.58
2019-04-20T01:52:58.032Z,4.40
2019-04-20T01:55:42.515Z,5.00
2019-04-20T01:58:37.638Z,4.75
2019-04-20T02:00:44.943Z,4.60
2019-04-20T02:03:36.868Z,4.55
2019-04-20T02:06:09.702Z,4.90
2019-04-20T02:08:34.175Z,4.50
2019-04-20T02:11:04.339Z,4.15
2019-04-20T02:13:36.117Z,4.00
2019-04-20T02:16:04.894Z,4.50
2019-04-20T02:18:40.035Z,4.20
2019-04-20T02:21:18.304Z,4.00
2019-04-20T02:23:35.773Z,4.10
2019-04-20T02:25:54.634Z,4.50
2019-04-20T02:28:37.240Z,4.00
2019-04-20T02:32:11.861Z,4.40
2019-04-20T02:33:57.360Z,4.28
2019-04-20T02:36:48.777Z,4.70
2019-04-20T02:41:36.077Z,4.10
2019-04-20T02:46:31.582Z,4.55
2019-04-20T02:49:04.302Z,4.62
2019-04-20T02:54:11.470Z,4.97
2019-04-20T02:59:14.761Z,4.28
2019-04-20T03:01:26.755Z,4.75
2019-04-20T03:03:42.770Z,4.78
2019-04-20T03:06:17.297Z,5.03
2019-04-20T03:08:56.324Z,4.72
2019-04-20T03:11:23.086Z,4.70
2019-04-20T03:13:50.618Z,4.40
2019-04-20T03:16:16.753Z,4.65
2019-04-20T03:18:44.538Z,4.50
2019-04-20T03:21:21.075Z,5.15
2019-04-20T03:23:54.224Z,4.17
2019-04-20T03:26:29.333Z,5.33
2019-04-20T03:29:10.141Z,4.70
2019-04-20T03:32:15.471Z,4.72
2019-04-20T03:36:53.138Z,4.70
2019-04-20T03:39:13.609Z,4.90
2019-04-20T03:41:28.233Z,4.55
2019-04-20T03:43:54.147Z,4.35
2019-04-20T03:46:30.156Z,4.40
2019-04-20T03:49:04.661Z,4.70
2019-04-20T03:51:40.154Z,4.97
2019-04-20T03:54:05.170Z,4.40
2019-04-20T03:56:49.642Z,4.70
2019-04-20T03:59:43.684Z,4.70
2019-04-20T04:02:45.862Z,4.75
2019-04-20T04:05:07.337Z,5.30
2019-04-20T04:07:24.946Z,4.58
2019-04-20T04:09:59.792Z,4.75
2019-04-20T04:13:07.328Z,4.25
2019-04-20T04:15:37.076Z,4.40
2019-04-20T04:18:13.513Z,4.45
2019-04-20T04:20:43.626Z,4.87
2019-04-20T04:23:24.932Z,4.72
2019-04-20T04:25:55.684Z,4.25
2019-04-20T04:28:18.566Z,4.62
2019-04-20T04:30:49.620Z,4.67
2019-04-20T04:35:48.298Z,4.42
2019-04-20T04:38:19.451Z,4.62
2019-04-20T04:40:57.904Z,4.65
2019-04-20T04:43:22.114Z,4.78
2019-04-20T04:45:30.023Z,4.80
2019-04-20T04:47:56.138Z,4.58
2019-04-20T04:50:26.624Z,4.47
2019-04-20T04:53:04.509Z,4.37
2019-04-20T04:55:32.758Z,4.75
2019-04-20T04:57:53.761Z,4.80
2019-04-20T05:00:26.228Z,4.80
2019-04-20T05:02:57.760Z,4.80
2019-04-20T05:05:35.906Z,4.72
2019-04-20T05:07:59.428Z,5.28
2019-04-20T05:10:19.489Z,4.70
2019-04-20T05:12:48.203Z,4.50
2019-04-20T05:15:29.582Z,4.80
2019-04-20T05:18:06.211Z,5.17
2019-04-20T05:20:38.680Z,4.78
2019-04-20T05:23:12.667Z,4.53
2019-04-20T05:25:50.932Z,5.47
2019-04-20T05:28:20.467Z,4.80
2019-04-20T05:30:45.730Z,5.17
2019-04-20T05:33:16.803Z,5.12
2019-04-20T05:36:01.432Z,5.10
2019-04-20T05:38:33.615Z,4.67
2019-04-20T05:40:59.471Z,5.03
2019-04-20T05:43:36.293Z,4.70
2019-04-20T05:46:14.712Z,5.00
2019-04-20T05:48:45.738Z,4.90
2019-04-20T05:51:01.776Z,4.58
2019-04-20T05:53:38.773Z,4.83
2019-04-20T05:56:02.923Z,4.97
2019-04-20T05:58:32.694Z,5.33
2019-04-20T06:01:08.443Z,4.97
2019-04-20T06:03:32.246Z,5.05
2019-04-20T06:06:10.710Z,6.00
2019-04-20T06:08:40.258Z,6.42
2019-04-20T06:11:02.043Z,6.00
2019-04-20T06:13:22.871Z,6.10
2019-04-20T06:16:06.031Z,6.22
2019-04-20T06:21:17.384Z,6.28
2019-04-20T06:23:56.417Z,6.12
2019-04-20T06:26:43.499Z,6.47
2019-04-20T06:28:57.129Z,6.12
2019-04-20T06:31:30.121Z,5.80
2019-04-20T06:36:53.445Z,5.87
2019-04-20T06:42:08.111Z,5.80
2019-04-20T06:44:29.185Z,5.47
2019-04-20T06:46:59.086Z,5.25
2019-04-20T06:51:58.917Z,6.03
2019-04-20T06:54:42.198Z,5.10
2019-04-20T06:57:10.161Z,4.80
2019-04-20T06:59:56.500Z,5.25
2019-04-20T07:02:17.240Z,5.03
2019-04-20T07:07:08.538Z,5.80
2019-04-20T07:09:47.340Z,5.45
2019-04-20T07:12:02.886Z,5.10
2019-04-20T07:14:28.863Z,5.30
2019-04-20T07:17:24.879Z,5.40
2019-04-20T07:19:50.050Z,5.75
2019-04-20T07:22:33.618Z,5.00
2019-04-20T07:25:14.395Z,5.72
2019-04-20T07:27:29.464Z,5.45
2019-04-20T07:30:06.332Z,6.50
2019-04-20T07:32:19.227Z,6.83
2019-04-20T07:34:55.590Z,5.80
2019-04-20T07:40:02.692Z,5.28
2019-04-20T07:42:28.704Z,5.03
2019-04-20T07:45:01.254Z,5.20
2019-04-20T07:47:32.493Z,5.37
2019-04-20T07:49:49.832Z,5.33
2019-04-20T07:52:01.837Z,5.00
2019-04-20T07:55:12.153Z,5.40
2019-04-20T07:57:16.966Z,4.83
2019-04-20T07:59:37.426Z,4.92
2019-04-20T08:02:25.225Z,5.42
2019-04-20T08:04:43.494Z,5.10
2019-04-20T08:07:02.098Z,5.45
2019-04-20T08:09:36.436Z,5.83
2019-04-20T08:12:38.248Z,5.65
2019-04-20T08:14:57.579Z,5.70
2019-04-20T08:17:30.907Z,5.60
2019-04-20T08:19:50.986Z,5.30
2019-04-20T08:22:26.596Z,5.78
2019-04-20T08:24:46.888Z,5.80
2019-04-20T08:27:04.742Z,5.85
2019-04-20T08:29:45.172Z,5.55
2019-04-20T08:32:23.101Z,5.50
2019-04-20T08:34:53.783Z,5.70
2019-04-20T08:37:17.344Z,6.00
2019-04-20T08:39:57.407Z,5.80
2019-04-20T08:42:16.447Z,5.55
2019-04-20T08:47:29.178Z,6.10
2019-04-20T08:53:03.868Z,5.90
2019-04-20T08:55:09.870Z,5.87
2019-04-20T08:57:22.749Z,5.80
2019-04-20T08:59:51.406Z,6.12
2019-04-20T09:02:20.365Z,6.33
2019-04-20T09:04:55.221Z,5.85
2019-04-20T09:07:22.572Z,6.53
2019-04-20T09:10:11.611Z,7.62
2019-04-20T09:12:33.260Z,6.45
2019-04-20T09:14:44.519Z,6.28
2019-04-20T09:17:24.191Z,6.42
2019-04-20T09:19:54.820Z,6.90
2019-04-20T09:22:38.814Z,6.10
2019-04-20T09:25:27.892Z,5.78
2019-04-20T09:27:38.583Z,6.30
2019-04-20T09:30:17.277Z,6.22
2019-04-20T09:32:59.531Z,5.67
2019-04-20T09:35:28.026Z,6.25
2019-04-20T09:38:03.264Z,6.45
2019-04-20T09:40:30.760Z,6.40
2019-04-20T09:42:50.257Z,6.22
2019-04-20T09:45:27.780Z,6.00
2019-04-20T09:47:53.227Z,6.15
2019-04-20T09:50:31.976Z,6.50
2019-04-20T09:53:02.522Z,6.53
2019-04-20T09:55:29.517Z,6.20
2019-04-20T09:58:01.317Z,6.03
2019-04-20T10:00:35.895Z,5.78
2019-04-20T10:02:46.397Z,6.45
2019-04-20T10:05:15.663Z,6.47
2019-04-20T10:07:43.932Z,6.50
2019-04-20T10:10:21.515Z,6.37
2019-04-20T10:12:41.851Z,6.42
2019-04-20T10:15:15.690Z,5.95
2019-04-20T10:17:38.628Z,6.03
2019-04-20T10:20:12.722Z,5.85
2019-04-20T10:22:36.175Z,5.95
2019-04-20T10:25:04.667Z,5.92
2019-04-20T10:27:32.715Z,5.92
2019-04-20T10:30:03.777Z,6.58
2019-04-20T10:32:36.292Z,6.42
2019-04-20T10:34:58.849Z,5.92
2019-04-20T10:37:27.809Z,5.72
2019-04-20T10:39:54.610Z,6.45
2019-04-20T10:42:21.602Z,5.80
2019-04-20T10:44:48.379Z,6.35
2019-04-20T10:47:16.812Z,6.08
2019-04-20T10:49:45.042Z,5.92
2019-04-20T10:52:13.728Z,5.75
2019-04-20T10:54:40.696Z,6.03
2019-04-20T10:57:07.891Z,5.67
2019-04-20T10:59:34.958Z,5.45
2019-04-20T11:02:02.042Z,5.87
2019-04-20T11:04:28.791Z,5.97
2019-04-20T11:06:56.621Z,5.55
2019-04-20T11:09:24.831Z,5.80
2019-04-20T11:11:52.395Z,6.05
2019-04-20T11:14:26.309Z,5.47
2019-04-20T11:16:48.526Z,5.50
2019-04-20T11:19:15.991Z,5.90
2019-04-20T11:21:44.113Z,5.47
2019-04-20T11:24:12.260Z,5.60
2019-04-20T11:26:41.625Z,5.03
2019-04-20T11:29:08.465Z,5.37
2019-04-20T11:31:41.672Z,5.15
2019-04-20T11:34:04.449Z,5.15
2019-04-20T11:36:32.878Z,5.25
2019-04-20T11:39:00.731Z,6.15
2019-04-20T11:41:32.710Z,5.55
2019-04-20T11:43:59.789Z,5.15
2019-04-20T11:46:26.977Z,5.30
2019-04-20T11:48:55.211Z,5.00
2019-04-20T11:51:23.357Z,5.08
2019-04-20T11:53:50.606Z,5.17
2019-04-20T11:56:24.312Z,5.05
2019-04-20T11:58:48.990Z,5.15
2019-04-20T12:01:23.663Z,5.03
2019-04-20T12:04:00.348Z,5.15
2019-04-20T12:06:18.981Z,4.30
2019-04-20T12:08:47.082Z,4.80
2019-04-20T12:11:27.840Z,4.47
2019-04-20T12:13:44.766Z,4.37
2019-04-20T12:16:12.084Z,5.33
2019-04-20T12:18:39.023Z,6.90
2019-04-20T12:21:05.949Z,6.00
2019-04-20T12:23:34.002Z,6.40
2019-04-20T12:26:01.986Z,7.08
2019-04-20T12:28:29.612Z,6.90
2019-04-20T12:31:07.777Z,5.95
2019-04-20T12:33:26.722Z,5.45
2019-04-20T12:35:54.249Z,4.87
2019-04-20T12:38:21.656Z,5.05
2019-04-20T12:40:48.573Z,4.90
2019-04-20T12:43:17.211Z,4.92
2019-04-20T12:45:44.357Z,4.72
2019-04-20T12:48:11.431Z,4.30
2019-04-20T12:50:41.552Z,4.50
2019-04-20T12:53:08.653Z,4.00
2019-04-20T12:55:36.758Z,3.50
2019-04-20T12:58:04.914Z,3.92
2019-04-20T13:00:45.998Z,4.25
2019-04-20T13:03:13.771Z,4.10
2019-04-20T13:05:41.498Z,4.47
2019-04-20T13:08:13.831Z,4.25
2019-04-20T13:10:40.255Z,3.65
2019-04-20T13:13:10.199Z,4.62
2019-04-20T13:15:44.468Z,4.65
2019-04-20T13:18:19.532Z,3.65
2019-04-20T13:20:47.819Z,4.10
2019-04-20T13:23:15.130Z,4.00
2019-04-20T13:25:43.065Z,4.40
2019-04-20T13:28:10.685Z,4.15
2019-04-20T13:30:37.711Z,4.17
2019-04-20T13:33:05.953Z,3.98
2019-04-20T13:35:34.305Z,3.80
2019-04-20T13:38:02.379Z,3.92
2019-04-20T13:40:31.039Z,3.90
2019-04-20T13:42:59.485Z,4.40
2019-04-20T13:45:26.730Z,4.12
2019-04-20T13:47:55.101Z,3.98
2019-04-20T13:50:22.434Z,3.80
2019-04-20T13:52:49.774Z,3.80
2019-04-20T13:55:19.331Z,3.87
2019-04-20T13:57:47.189Z,4.05
2019-04-20T14:00:22.042Z,4.10
2019-04-20T14:03:02.789Z,4.08
2019-04-20T14:05:33.069Z,3.98
2019-04-20T14:08:09.389Z,4.28
2019-04-20T14:10:37.682Z,4.30
2019-04-20T14:13:11.271Z,4.30
2019-04-20T14:15:35.283Z,4.40
2019-04-20T14:18:03.198Z,4.30
2019-04-20T14:20:30.347Z,4.55
2019-04-20T14:22:58.843Z,5.85
2019-04-20T14:25:27.043Z,4.95
2019-04-20T14:27:55.283Z,4.30
2019-04-20T14:30:22.670Z,4.65
2019-04-20T14:32:50.495Z,4.47
2019-04-20T14:35:18.717Z,4.70
2019-04-20T14:37:47.943Z,4.20
2019-04-20T14:40:16.523Z,4.20
2019-04-20T14:42:48.570Z,4.30
2019-04-20T14:45:14.761Z,4.53
2019-04-20T14:47:41.581Z,5.67
2019-04-20T14:50:09.759Z,4.20
2019-04-20T14:52:37.691Z,4.40
2019-04-20T14:55:08.664Z,4.30
2019-04-20T14:57:35.634Z,4.00
2019-04-20T15:00:09.750Z,4.67
2019-04-20T15:02:36.630Z,5.05
2019-04-20T15:05:05.448Z,4.15
2019-04-20T15:07:33.038Z,3.58
2019-04-20T15:10:00.828Z,4.00
2019-04-20T15:12:38.982Z,4.12
2019-04-20T15:14:56.781Z,4.25
2019-04-20T15:17:29.812Z,3.90
2019-04-20T15:19:59.221Z,3.72
2019-04-20T15:22:36.950Z,4.10
2019-04-20T15:25:09.596Z,3.75
2019-04-20T15:27:37.399Z,3.80
2019-04-20T15:30:08.602Z,3.65
2019-04-20T15:32:36.855Z,3.67
2019-04-20T15:35:07.093Z,3.85
2019-04-20T15:37:35.155Z,5.30
2019-04-20T15:40:06.457Z,3.65
2019-04-20T15:42:36.255Z,3.77
2019-04-20T15:45:05.298Z,3.65
2019-04-20T15:47:32.414Z,3.40
2019-04-20T15:49:59.926Z,3.92
2019-04-20T15:52:33.630Z,4.00
2019-04-20T15:54:56.024Z,3.65
2019-04-20T15:57:25.690Z,4.25
2019-04-20T15:59:53.604Z,4.00
2019-04-20T16:02:35.714Z,4.87
2019-04-20T16:05:08.248Z,5.35
2019-04-20T16:07:39.144Z,4.62
2019-04-20T16:10:07.459Z,4.47
2019-04-20T16:12:35.164Z,3.65
2019-04-20T16:15:04.657Z,3.95
2019-04-20T16:17:38.463Z,3.90
2019-04-20T16:20:07.947Z,4.05
2019-04-20T16:22:30.928Z,4.05
2019-04-20T16:25:01.214Z,4.20
2019-04-20T16:27:29.573Z,4.37
2019-04-20T16:29:57.769Z,4.17
2019-04-20T16:32:24.808Z,4.47
2019-04-20T16:34:52.717Z,4.75
2019-04-20T16:37:20.136Z,3.95
2019-04-20T16:39:48.342Z,4.05
2019-04-20T16:42:16.180Z,4.12
2019-04-20T16:44:43.576Z,4.30
2019-04-20T16:47:10.684Z,4.95
2019-04-20T16:49:39.382Z,4.97
2019-04-20T16:52:07.307Z,4.58
2019-04-20T16:54:35.623Z,4.10
2019-04-20T16:57:02.990Z,4.47
2019-04-20T16:59:33.572Z,4.67
2019-04-20T17:01:58.428Z,5.10
2019-04-20T17:04:26.936Z,4.58
2019-04-20T17:07:14.199Z,4.37
2019-04-20T17:09:42.060Z,4.62
2019-04-20T17:12:10.013Z,4.25
2019-04-20T17:14:37.887Z,4.50
2019-04-20T17:17:05.181Z,4.95
2019-04-20T17:19:33.488Z,4.62
2019-04-20T17:22:01.245Z,4.42
2019-04-20T17:24:29.370Z,4.53
2019-04-20T17:27:15.181Z,4.55
2019-04-20T17:29:52.807Z,4.15
2019-04-20T17:32:21.581Z,4.65
2019-04-20T17:35:04.663Z,4.47
2019-04-20T17:37:18.446Z,5.28
2019-04-20T17:40:06.369Z,4.70
2019-04-20T17:42:32.767Z,4.62
2019-04-20T17:44:52.953Z,4.70
2019-04-20T17:47:34.755Z,4.17
2019-04-20T17:49:59.649Z,4.28
2019-04-20T17:52:35.920Z,3.58
2019-04-20T17:54:47.310Z,4.30
2019-04-20T17:57:15.265Z,4.33
2019-04-20T17:59:52.155Z,5.10
2019-04-20T18:02:33.380Z,4.55
2019-04-20T18:05:20.106Z,4.50
2019-04-20T18:07:58.768Z,5.40
2019-04-20T18:10:16.361Z,5.35
2019-04-20T18:12:26.842Z,5.22
2019-04-20T18:15:06.485Z,4.90
2019-04-20T18:17:29.371Z,5.12
2019-04-20T18:19:52.175Z,5.58
2019-04-20T18:22:19.555Z,6.37
2019-04-20T18:25:09.143Z,6.53
2019-04-20T18:27:37.116Z,6.28
2019-04-20T18:30:04.045Z,5.85
2019-04-20T18:32:23.238Z,6.80
2019-04-20T18:35:02.631Z,6.60
2019-04-20T18:37:28.841Z,5.83
2019-04-20T18:40:05.067Z,6.92
2019-04-20T18:42:32.379Z,6.60
2019-04-20T18:45:12.569Z,7.28
2019-04-20T18:47:45.300Z,8.05
2019-04-20T18:50:07.702Z,8.30
2019-04-20T18:52:27.535Z,8.43
2019-04-20T18:54:57.585Z,7.80
2019-04-20T18:57:29.157Z,7.22
2019-04-20T18:59:56.704Z,7.53
2019-04-20T19:02:32.774Z,7.47
2019-04-20T19:04:58.610Z,6.90
2019-04-20T19:07:25.849Z,7.42
2019-04-20T19:10:08.480Z,7.30
2019-04-20T19:12:42.492Z,6.85
2019-04-20T19:15:20.658Z,7.20
2019-04-20T19:17:45.114Z,7.00
2019-04-20T19:20:09.257Z,5.35
2019-04-20T19:22:37.297Z,5.22
2019-04-20T19:25:05.713Z,5.50
2019-04-20T19:27:39.943Z,5.22
2019-04-20T19:30:14.929Z,4.78
2019-04-20T19:32:45.212Z,4.67
2019-04-20T19:35:06.821Z,4.22
2019-04-20T19:37:33.103Z,4.72
2019-04-20T19:40:08.140Z,4.45
2019-04-20T19:42:39.666Z,4.92
2019-04-20T19:45:18.747Z,5.45
2019-04-20T19:47:47.153Z,5.05
2019-04-20T19:50:22.007Z,5.00
2019-04-20T19:52:51.751Z,4.72
2019-04-20T19:55:10.802Z,5.57
2019-04-20T19:57:38.879Z,5.65
2019-04-20T19:59:54.143Z,5.10
2019-04-20T20:02:18.816Z,5.33
2019-04-20T20:04:52.394Z,5.17
2019-04-20T20:07:24.255Z,5.53
2019-04-20T20:09:53.054Z,5.80
2019-04-20T20:12:16.130Z,5.00
2019-04-20T20:14:46.074Z,6.45
2019-04-20T20:17:32.937Z,5.87
2019-04-20T20:20:13.009Z,5.90
2019-04-20T20:22:22.909Z,6.40
2019-04-20T20:24:38.902Z,8.05
2019-04-20T20:27:17.364Z,7.50
2019-04-20T20:29:41.402Z,7.00
2019-04-20T20:32:17.704Z,6.65
2019-04-20T20:34:40.501Z,6.67
2019-04-20T20:37:06.298Z,6.05
2019-04-20T20:39:36.641Z,6.00
2019-04-20T20:42:15.153Z,6.12
2019-04-20T20:44:42.590Z,6.37
2019-04-20T20:47:12.942Z,6.22
2019-04-20T20:49:48.777Z,5.65
2019-04-20T20:52:19.796Z,5.65
2019-04-20T20:54:41.371Z,5.75
2019-04-20T20:57:03.736Z,5.72
2019-04-20T20:59:39.567Z,5.90
2019-04-20T21:02:06.734Z,5.85
2019-04-20T21:04:30.017Z,5.47
2019-04-20T21:06:58.089Z,5.90
2019-04-20T21:09:25.666Z,6.03
2019-04-20T21:12:01.796Z,6.53
2019-04-20T21:14:27.957Z,6.62
2019-04-20T21:17:01.770Z,6.40
2019-04-20T21:19:41.881Z,5.90
2019-04-20T21:21:59.992Z,5.58
2019-04-20T21:24:22.113Z,6.05
2019-04-20T21:26:49.997Z,5.90
2019-04-20T21:29:21.363Z,5.90
2019-04-20T21:31:54.468Z,6.10
2019-04-20T21:34:19.511Z,5.75
2019-04-20T21:36:43.253Z,6.20
2019-04-20T21:39:23.528Z,5.70
2019-04-20T21:41:40.621Z,6.20
2019-04-20T21:44:18.195Z,5.72
2019-04-20T21:46:43.778Z,5.60
2019-04-20T21:49:21.836Z,5.20
2019-04-20T21:51:44.689Z,5.60
2019-04-20T21:54:03.766Z,5.72
2019-04-20T21:56:31.928Z,5.60
2019-04-20T21:59:03.793Z,6.10
2019-04-20T22:01:34.589Z,5.33
2019-04-20T22:03:58.542Z,5.80
2019-04-20T22:06:26.632Z,6.03
2019-04-20T22:09:00.408Z,5.65
2019-04-20T22:11:25.943Z,5.58
2019-04-20T22:13:54.598Z,5.75
2019-04-20T22:16:22.693Z,5.78
2019-04-20T22:18:59.176Z,6.08
2019-04-20T22:21:26.524Z,6.50
2019-04-20T22:24:05.406Z,5.72
2019-04-20T22:26:29.654Z,6.22
2019-04-20T22:28:45.614Z,6.22
2019-04-20T22:31:14.021Z,5.80
2019-04-20T22:33:44.601Z,6.00
2019-04-20T22:36:12.782Z,5.60
2019-04-20T22:39:01.298Z,5.72
2019-04-20T22:41:27.943Z,5.80
2019-04-20T22:43:54.939Z,5.95
2019-04-20T22:46:24.773Z,5.97
2019-04-20T22:48:59.489Z,5.67
2019-04-20T22:51:37.097Z,5.90
2019-04-20T22:53:56.359Z,5.78
2019-04-20T22:56:35.673Z,5.85
2019-04-20T22:58:57.539Z,5.62
2019-04-20T23:01:24.950Z,5.65
2019-04-20T23:03:44.828Z,5.62
2019-04-20T23:06:12.592Z,5.42
2019-04-20T23:08:40.496Z,5.05
2019-04-20T23:11:14.802Z,6.15
2019-04-20T23:13:41.954Z,5.92
2019-04-20T23:16:07.494Z,5.80
2019-04-20T23:18:36.036Z,5.62
2019-04-20T23:21:07.976Z,5.35
2019-04-20T23:23:33.476Z,4.87
2019-04-20T23:26:01.191Z,5.25
2019-04-20T23:28:29.139Z,5.17
2019-04-20T23:31:02.575Z,5.42
2019-04-20T23:33:25.649Z,5.17
2019-04-20T23:35:56.610Z,5.30
2019-04-20T23:38:24.514Z,5.40
2019-04-20T23:40:50.096Z,5.37
2019-04-20T23:43:25.167Z,5.85
2019-04-20T23:45:52.445Z,5.72
2019-04-20T23:48:30.515Z,5.60
2019-04-20T23:51:11.317Z,5.55
2019-04-20T23:53:39.329Z,5.42
2019-04-20T23:55:52.058Z,6.17
2019-04-20T23:58:19.881Z,5.70
